This is the latest recevied weather packets stored in our database for station/object WV5G-13. If no packets are shown the sender has not sent any weather packets the latest 1 day(s).
| Time | Temp. | Humidity | Pressure | Rain* | Wind** | Luminosity | Snow |
|---|---|---|---|---|---|---|---|
| 1778108195 | 15° C | 47% | 1012.7 hPa | 0 mm | - | 398 W/m² | - |
| 1778106677 | 15° C | 47% | 1012.7 hPa | 0 mm | - | 466 W/m² | - |
| 1778104250 | 13.89° C | 50% | 1012.8 hPa | 0 mm | - | 588 W/m² | - |
| 1778101825 | 13.89° C | 51% | 1013.2 hPa | 0 mm | - | 762 W/m² | - |
| 1778101218 | 13.89° C | 50% | 1013.3 hPa | 0 mm | - | 253 W/m² | - |
| 1778100610 | 14.44° C | 49% | 1013.2 hPa | 0 mm | - | 851 W/m² | - |
| 1778100005 | 13.89° C | 51% | 1013.1 hPa | 0 mm | - | 325 W/m² | - |
| 1778099096 | 15.56° C | 46% | 1013.3 hPa | 0 mm | - | 968 W/m² | - |
| 1778098787 | 15° C | 47% | 1013 hPa | 0 mm | - | 902 W/m² | - |
| 1778098181 | 15° C | 47% | 1012.9 hPa | 0 mm | - | 327 W/m² | - |
| 1778097271 | 13.33° C | 50% | 1013.1 hPa | 0 mm | - | 906 W/m² | - |
| 1778096665 | 14.44° C | 48% | 1013.5 hPa | 0 mm | - | 940 W/m² | - |
| 1778096059 | 13.33° C | 51% | 1013.6 hPa | 0 mm | - | 230 W/m² | - |
| 1778095452 | 14.44° C | 49% | 1013.7 hPa | 0 mm | - | 958 W/m² | - |
| 1778095149 | 13.89° C | 50% | 1013.8 hPa | 0 mm | - | 977 W/m² | - |
| 1778092724 | 12.78° C | 53% | 1014.2 hPa | 0 mm | - | 383 W/m² | - |
| 1778092419 | 13.33° C | 52% | 1014 hPa | 0 mm | - | 1064 W/m² | - |
| 1778090602 | 11.11° C | 58% | 1014.7 hPa | 0 mm | - | 566 W/m² | - |
| 1778089995 | 12.22° C | 55% | 1014.6 hPa | 0 mm | - | 472 W/m² | - |
| 1778088177 | 12.22° C | 57% | 1014.5 hPa | 0 mm | - | 1078 W/m² | - |
| 1778087875 | 11.11° C | 59% | 1014.6 hPa | 0 mm | - | 702 W/m² | - |
| 1778085755 | 10.56° C | 60% | 1014.7 hPa | 0 mm | - | 485 W/m² | - |
| 1778084843 | 10° C | 62% | 1014.3 hPa | 0 mm | - | 487 W/m² | - |
| 1778084540 | 9.44° C | 63% | 1014.6 hPa | 0 mm | - | 392 W/m² | - |
| 1778083627 | 10° C | 63% | 1014.1 hPa | 0 mm | - | 605 W/m² | - |
* Rain latest hour (hover to see other rain measurements)
** Current wind speed in m/s (hover to see current wind gust speed)